Terminal Aerodrome Forecast
Issued by NWS Denver/Boulder, CO

Home | Current Version | Previous Version | Text Only | Print | Product List | Glossary On
Versions: 1 2 3 4 5 6 7 8 9 10 11 12 13 14 15 16 17 18 19 20 21 22 23 24 25 26 27 28 29 30 31 32 33 34 35 36 37 38 39 40 41 42 43 44 45 46 47
000
FTUS45 KBOU 212100 AAB
TAFDEN
TAF AMD
KDEN 212100Z 2121/2224 30013G21KT P6SM SCT100 BKN150
     FM212200 30010KT P6SM SCT100 BKN200
     FM220300 23010KT P6SM FEW120 SCT220
     FM220700 20010KT P6SM FEW220
     FM221600 15008KT P6SM FEW140
     FM222100 14014KT P6SM SCT100 BKN200=

USA.gov is the U.S. government's official web portal to all federal, state and local government web resources and services.